Rutledge, Minnesota
Current Conditions -  °F | °C
As of 5:33 PM on Friday 19 Dec 2014 (Local Time) from KMZH Reporting Station
Overcast Overcast  
Wind Chill: 27°   Ceiling: 1500
Heat Index: 27°   Visibility: 10mi
Dew Point: 21°   Wind: 3mph
Humidity: 80%   Direction: 160°SSE
Pressure: 30.16"   Gusts: NA
Location:  46.2985°N, 92.833°W
Report Text: KMZH 192333Z AUTO 16003KT 10SM OVC015 M03/M06 A3016 RMK AO2
Loading
Personal Weather Stations






























Interactive Weather Map New forecast layout! Learn more

10-Day Weather Forecast

Advertisements
Track Severe Weather on mobile